Time;durP1;ratioP1;P1;durP2;ratioP2;P2;SDS_P1;SDS_P2;PMS_P1;PMS_P2;Temp;Humidity;BMP_temperature;BMP_pressure;BME280_temperature;BME280_humidity;BME280_pressure;Samples;Min_cycle;Max_cycle;Signal;HPM_P1;HPM_P2
2021/05/26 00:02:17;;;;;;;1.23;0.82;;;;;;;;;;5006390;28;20042;-60
2021/05/26 00:04:42;;;;;;;2.00;0.90;;;;;;;;;;5008350;28;20045;-60
2021/05/26 00:07:08;;;;;;;1.50;0.80;;;;;;;;;;5006758;28;20034;-60
2021/05/26 00:09:33;;;;;;;1.90;0.90;;;;;;;;;;4976881;28;20039;-61
2021/05/26 00:11:59;;;;;;;2.47;1.00;;;;;;;;;;4973545;28;20515;-60
2021/05/26 00:14:24;;;;;;;1.85;0.98;;;;;;;;;;5008157;28;20677;-60
2021/05/26 00:16:50;;;;;;;2.78;1.17;;;;;;;;;;4990064;28;20046;-60
2021/05/26 00:19:15;;;;;;;1.50;0.82;;;;;;;;;;5005679;28;20033;-60
2021/05/26 00:21:41;;;;;;;2.25;0.88;;;;;;;;;;4988779;28;20049;-60
2021/05/26 00:24:07;;;;;;;2.40;1.00;;;;;;;;;;4994189;28;20030;-60
2021/05/26 00:26:33;;;;;;;1.90;0.95;;;;;;;;;;5009359;28;20097;-60
2021/05/26 00:28:58;;;;;;;2.50;0.90;;;;;;;;;;5004356;28;20113;-60
2021/05/26 00:31:25;;;;;;;1.63;0.90;;;;;;;;;;5006775;28;20034;-60
2021/05/26 00:33:51;;;;;;;2.75;1.10;;;;;;;;;;5008146;28;20034;-60
2021/05/26 00:36:17;;;;;;;2.22;1.15;;;;;;;;;;5008007;28;20034;-60
2021/05/26 00:38:42;;;;;;;2.50;1.15;;;;;;;;;;4989691;28;20119;-60
2021/05/26 00:41:08;;;;;;;2.40;1.15;;;;;;;;;;5008608;28;20034;-60
2021/05/26 00:43:34;;;;;;;2.83;0.93;;;;;;;;;;4977763;28;20483;-60
2021/05/26 00:45:59;;;;;;;2.33;0.88;;;;;;;;;;4991301;28;20720;-62
2021/05/26 00:48:25;;;;;;;4.28;1.20;;;;;;;;;;4971394;28;20465;-60
2021/05/26 00:50:50;;;;;;;2.10;1.10;;;;;;;;;;5007502;28;20214;-60
2021/05/26 00:53:16;;;;;;;2.10;0.90;;;;;;;;;;4989435;28;20038;-60
2021/05/26 00:55:43;;;;;;;2.10;1.00;;;;;;;;;;5007386;28;20038;-60
2021/05/26 00:58:11;;;;;;;2.00;1.00;;;;;;;;;;4992435;28;20821;-60
2021/05/26 01:00:38;;;;;;;2.10;0.93;;;;;;;;;;5004940;28;20065;-60
2021/05/26 01:03:09;;;;;;;2.53;0.95;;;;;;;;;;5006634;28;20045;-58
2021/05/26 01:05:37;;;;;;;1.95;0.90;;;;;;;;;;4987098;28;20030;-60
2021/05/26 01:08:03;;;;;;;1.45;0.90;;;;;;;;;;5006667;28;20038;-60
2021/05/26 01:10:29;;;;;;;1.10;0.70;;;;;;;;;;5004675;28;20417;-60
2021/05/26 01:13:15;;;;;;;1.88;0.93;;;;;;;;;;5004365;28;20369;-60
2021/05/26 01:15:41;;;;;;;2.30;0.90;;;;;;;;;;5004732;28;20034;-60
2021/05/26 01:18:31;;;;;;;1.60;0.95;;;;;;;;;;5004693;28;20117;-60
2021/05/26 01:21:04;;;;;;;2.40;1.00;;;;;;;;;;4989463;28;20038;-60
2021/05/26 01:23:30;;;;;;;1.65;1.10;;;;;;;;;;4990461;28;20112;-60
2021/05/26 01:26:01;;;;;;;1.88;1.00;;;;;;;;;;4987911;28;20483;-60
2021/05/26 01:28:27;;;;;;;2.28;1.10;;;;;;;;;;5008524;28;20109;-60
2021/05/26 01:30:53;;;;;;;3.15;1.00;;;;;;;;;;5005106;28;20601;-60
2021/05/26 01:33:18;;;;;;;1.58;0.88;;;;;;;;;;4988510;28;20069;-60
2021/05/26 01:35:46;;;;;;;2.03;0.98;;;;;;;;;;5004085;28;20093;-60
2021/05/26 01:38:12;;;;;;;2.35;0.95;;;;;;;;;;5004774;28;20084;-60
2021/05/26 01:40:39;;;;;;;2.78;0.90;;;;;;;;;;4989082;28;20033;-60
2021/05/26 01:43:05;;;;;;;1.67;0.80;;;;;;;;;;5004768;28;20415;-60
2021/05/26 01:45:32;;;;;;;2.40;0.95;;;;;;;;;;5005825;28;20062;-60
2021/05/26 01:47:58;;;;;;;1.40;0.90;;;;;;;;;;5004315;28;20100;-60
2021/05/26 01:50:24;;;;;;;2.58;0.90;;;;;;;;;;5004344;28;20026;-60
2021/05/26 01:52:53;;;;;;;2.28;0.80;;;;;;;;;;4986074;28;20462;-60
2021/05/26 01:55:19;;;;;;;3.30;0.80;;;;;;;;;;5005402;28;20039;-60
2021/05/26 01:57:45;;;;;;;3.28;0.95;;;;;;;;;;5002541;28;20487;-60
2021/05/26 02:00:16;;;;;;;1.98;0.77;;;;;;;;;;4973540;28;20038;-60
2021/05/26 02:02:51;;;;;;;1.80;0.90;;;;;;;;;;5003590;28;20297;-60
2021/05/26 02:05:17;;;;;;;2.45;0.85;;;;;;;;;;4987731;28;20932;-60
2021/05/26 02:07:43;;;;;;;3.33;0.98;;;;;;;;;;4989196;28;20050;-60
2021/05/26 02:10:11;;;;;;;2.33;0.80;;;;;;;;;;4974888;28;20031;-60
2021/05/26 02:12:38;;;;;;;1.92;0.93;;;;;;;;;;4985728;28;20474;-60
2021/05/26 02:15:07;;;;;;;2.97;0.98;;;;;;;;;;4988916;28;20044;-60
2021/05/26 02:17:33;;;;;;;0.80;0.60;;;;;;;;;;5003839;28;20034;-60
2021/05/26 02:19:58;;;;;;;2.22;0.63;;;;;;;;;;4987865;28;20042;-60
2021/05/26 02:22:25;;;;;;;1.80;0.90;;;;;;;;;;5005989;28;20030;-60
2021/05/26 02:24:52;;;;;;;1.70;0.73;;;;;;;;;;4988853;28;20045;-60
2021/05/26 02:27:17;;;;;;;1.58;0.70;;;;;;;;;;5005733;28;20555;-60
2021/05/26 02:29:43;;;;;;;1.42;0.75;;;;;;;;;;4986454;28;20033;-60
2021/05/26 02:32:09;;;;;;;1.70;0.70;;;;;;;;;;5005837;28;20030;-60
2021/05/26 02:34:42;;;;;;;2.63;0.85;;;;;;;;;;5003307;28;20050;-60
2021/05/26 02:37:08;;;;;;;0.93;0.60;;;;;;;;;;4993075;28;20038;-60
2021/05/26 02:39:34;;;;;;;1.77;0.98;;;;;;;;;;5010621;28;20398;-60
2021/05/26 02:42:02;;;;;;;2.75;0.95;;;;;;;;;;5007187;28;20037;-60
2021/05/26 02:44:27;;;;;;;1.77;0.80;;;;;;;;;;5008252;28;20041;-60
2021/05/26 02:46:52;;;;;;;1.63;0.93;;;;;;;;;;4995714;28;20042;-60
2021/05/26 02:49:18;;;;;;;3.50;1.08;;;;;;;;;;5008428;28;20043;-60
2021/05/26 02:51:45;;;;;;;2.92;0.90;;;;;;;;;;4991580;28;20038;-60
2021/05/26 02:54:11;;;;;;;1.27;0.80;;;;;;;;;;4990943;28;20057;-60
2021/05/26 02:56:40;;;;;;;3.53;1.17;;;;;;;;;;5008728;28;20026;-60
2021/05/26 02:59:24;;;;;;;3.72;1.05;;;;;;;;;;5005167;28;20155;-60
2021/05/26 03:02:01;;;;;;;1.58;0.90;;;;;;;;;;5006256;28;20050;-60
2021/05/26 03:04:41;;;;;;;2.35;1.00;;;;;;;;;;5008287;28;20137;-60
2021/05/26 03:07:07;;;;;;;2.40;1.27;;;;;;;;;;5007574;28;20034;-60
2021/05/26 03:09:32;;;;;;;1.48;0.90;;;;;;;;;;5009100;28;20117;-60
2021/05/26 03:11:58;;;;;;;1.88;0.98;;;;;;;;;;5007931;28;20058;-60
2021/05/26 03:14:33;;;;;;;1.98;0.82;;;;;;;;;;5008326;28;20046;-59
2021/05/26 03:17:06;;;;;;;1.55;0.80;;;;;;;;;;5006768;28;20408;-60
2021/05/26 03:19:32;;;;;;;1.50;0.98;;;;;;;;;;5006986;28;20034;-60
2021/05/26 03:22:17;;;;;;;1.73;0.93;;;;;;;;;;5004761;28;20097;-60
2021/05/26 03:25:15;;;;;;;1.27;0.80;;;;;;;;;;4993666;28;20042;-60
2021/05/26 03:27:41;;;;;;;1.92;0.85;;;;;;;;;;4989908;28;20115;-60
2021/05/26 03:30:08;;;;;;;1.42;0.82;;;;;;;;;;5007400;28;20030;-60
2021/05/26 03:32:33;;;;;;;1.27;0.80;;;;;;;;;;5010052;28;20149;-60
2021/05/26 03:34:59;;;;;;;2.55;1.00;;;;;;;;;;4991134;28;20034;-60
2021/05/26 03:37:26;;;;;;;2.58;1.13;;;;;;;;;;4994300;28;20494;-60
2021/05/26 03:39:52;;;;;;;2.35;1.00;;;;;;;;;;4990616;28;20411;-60
2021/05/26 03:42:20;;;;;;;2.20;0.93;;;;;;;;;;5006518;28;20038;-60
2021/05/26 03:44:45;;;;;;;3.30;1.17;;;;;;;;;;4975511;28;20073;-60
2021/05/26 03:47:13;;;;;;;2.92;0.90;;;;;;;;;;4986376;28;20625;-60
2021/05/26 03:49:38;;;;;;;2.30;1.00;;;;;;;;;;5005482;28;20040;-60
2021/05/26 03:52:07;;;;;;;1.77;0.80;;;;;;;;;;5005314;28;20038;-60
2021/05/26 03:54:34;;;;;;;2.72;1.15;;;;;;;;;;5006498;28;20181;-60
2021/05/26 03:57:03;;;;;;;2.45;1.00;;;;;;;;;;5007067;28;20537;-60
2021/05/26 03:59:29;;;;;;;1.90;0.90;;;;;;;;;;4992334;28;20034;-60
2021/05/26 04:01:55;;;;;;;1.83;1.00;;;;;;;;;;4988942;28;20040;-60
2021/05/26 04:04:21;;;;;;;2.95;1.00;;;;;;;;;;4991172;28;20034;-60
2021/05/26 04:06:48;;;;;;;1.35;0.82;;;;;;;;;;4989887;28;20039;-60
2021/05/26 04:09:20;;;;;;;3.17;1.05;;;;;;;;;;4990478;28;20026;-60
2021/05/26 04:11:46;;;;;;;1.83;1.10;;;;;;;;;;5005442;28;20439;-60
2021/05/26 04:14:35;;;;;;;4.07;1.42;;;;;;;;;;4991030;28;20141;-59
2021/05/26 04:17:19;;;;;;;3.00;1.20;;;;;;;;;;5007325;28;20046;-60
2021/05/26 04:20:08;;;;;;;2.25;1.00;;;;;;;;;;4997211;28;20047;-60
2021/05/26 04:22:34;;;;;;;2.92;1.25;;;;;;;;;;5005717;28;20042;-60
2021/05/26 04:25:00;;;;;;;3.17;1.30;;;;;;;;;;5005443;28;20117;-60
2021/05/26 04:27:26;;;;;;;2.88;1.23;;;;;;;;;;5007913;28;20034;-60
2021/05/26 04:29:53;;;;;;;4.00;1.30;;;;;;;;;;5005832;28;20110;-60
2021/05/26 04:32:19;;;;;;;4.35;1.35;;;;;;;;;;5006122;28;20046;-60
2021/05/26 04:34:44;;;;;;;1.92;1.10;;;;;;;;;;5005089;28;20053;-60
2021/05/26 04:37:10;;;;;;;2.75;1.05;;;;;;;;;;5008723;28;20482;-60
2021/05/26 04:39:35;;;;;;;2.35;1.02;;;;;;;;;;5004265;28;20042;-60
2021/05/26 04:42:01;;;;;;;1.83;1.10;;;;;;;;;;4989206;28;20039;-60
2021/05/26 04:44:26;;;;;;;2.83;1.25;;;;;;;;;;5006440;28;20392;-60
2021/05/26 04:46:52;;;;;;;2.13;1.10;;;;;;;;;;5007176;28;20030;-60
2021/05/26 04:49:19;;;;;;;3.88;1.30;;;;;;;;;;5007118;28;20422;-60
2021/05/26 04:51:44;;;;;;;2.75;1.40;;;;;;;;;;5004250;28;20088;-60
2021/05/26 04:54:10;;;;;;;3.13;1.42;;;;;;;;;;4990668;28;20618;-59
2021/05/26 04:56:35;;;;;;;2.88;1.10;;;;;;;;;;4987751;28;20101;-60
2021/05/26 04:59:00;;;;;;;2.58;1.05;;;;;;;;;;4971897;28;20133;-60
2021/05/26 05:01:26;;;;;;;3.65;1.33;;;;;;;;;;5007480;28;20039;-60
2021/05/26 05:03:51;;;;;;;5.68;1.20;;;;;;;;;;4988660;28;20619;-60
2021/05/26 05:06:17;;;;;;;2.90;1.30;;;;;;;;;;5005709;28;20052;-60
2021/05/26 05:08:42;;;;;;;3.22;1.50;;;;;;;;;;5006299;28;20039;-60
2021/05/26 05:11:08;;;;;;;4.00;1.30;;;;;;;;;;5005910;28;20030;-60
2021/05/26 05:13:33;;;;;;;3.65;1.40;;;;;;;;;;4956496;28;20042;-60
2021/05/26 05:15:59;;;;;;;3.47;1.50;;;;;;;;;;5005933;28;20121;-60
2021/05/26 05:18:24;;;;;;;3.75;1.50;;;;;;;;;;5004866;28;20038;-60
2021/05/26 05:20:50;;;;;;;3.15;1.42;;;;;;;;;;5006467;28;20034;-60
2021/05/26 05:23:16;;;;;;;2.22;1.20;;;;;;;;;;4986830;28;20126;-60
2021/05/26 05:25:41;;;;;;;2.78;1.20;;;;;;;;;;4989770;28;20027;-60
2021/05/26 05:28:06;;;;;;;2.42;1.40;;;;;;;;;;5005762;28;20812;-60
2021/05/26 05:30:32;;;;;;;2.38;1.10;;;;;;;;;;5005657;28;20038;-60
2021/05/26 05:32:58;;;;;;;4.18;1.42;;;;;;;;;;4987870;28;20045;-60
2021/05/26 05:35:23;;;;;;;2.95;1.10;;;;;;;;;;4989405;28;20226;-60
2021/05/26 05:37:48;;;;;;;4.47;1.30;;;;;;;;;;5005914;28;20033;-60
2021/05/26 05:40:14;;;;;;;3.13;1.20;;;;;;;;;;4986321;28;20073;-60
2021/05/26 05:42:40;;;;;;;3.45;1.30;;;;;;;;;;5005350;28;20046;-60
2021/05/26 05:45:06;;;;;;;3.30;1.38;;;;;;;;;;4990903;28;20118;-60
2021/05/26 05:47:33;;;;;;;3.40;1.30;;;;;;;;;;4990524;28;20053;-60
2021/05/26 05:49:59;;;;;;;4.03;1.40;;;;;;;;;;5007742;28;20096;-60
2021/05/26 05:52:24;;;;;;;3.70;1.30;;;;;;;;;;4974449;28;20093;-60
2021/05/26 05:54:50;;;;;;;2.55;1.25;;;;;;;;;;5005742;28;20113;-60
2021/05/26 05:57:15;;;;;;;2.20;1.05;;;;;;;;;;5005052;28;20038;-59
2021/05/26 05:59:41;;;;;;;3.20;1.05;;;;;;;;;;4973684;28;20030;-59
2021/05/26 06:02:06;;;;;;;3.08;1.35;;;;;;;;;;5007243;28;20035;-60
2021/05/26 06:04:32;;;;;;;3.13;1.23;;;;;;;;;;5002821;28;20034;-60
2021/05/26 06:06:57;;;;;;;2.03;1.05;;;;;;;;;;5003316;28;20034;-60
2021/05/26 06:09:24;;;;;;;3.53;1.20;;;;;;;;;;5005599;28;20034;-60
2021/05/26 06:11:50;;;;;;;2.92;1.10;;;;;;;;;;5007613;28;20042;-60
2021/05/26 06:14:18;;;;;;;3.08;1.40;;;;;;;;;;4989665;28;20244;-60
2021/05/26 06:16:44;;;;;;;2.97;1.30;;;;;;;;;;5008184;28;20043;-60
2021/05/26 06:19:09;;;;;;;2.40;1.10;;;;;;;;;;4993390;28;20720;-60
2021/05/26 06:21:35;;;;;;;3.75;1.20;;;;;;;;;;5009841;28;20513;-60
2021/05/26 06:24:01;;;;;;;3.05;1.00;;;;;;;;;;4992911;28;20497;-61
2021/05/26 06:26:31;;;;;;;2.80;1.20;;;;;;;;;;5007660;28;20533;-60
2021/05/26 06:28:57;;;;;;;4.05;1.20;;;;;;;;;;4997364;28;20038;-61
2021/05/26 06:31:22;;;;;;;3.35;1.30;;;;;;;;;;4990856;28;20487;-61
2021/05/26 06:33:48;;;;;;;3.13;1.10;;;;;;;;;;4989438;28;20053;-61
2021/05/26 06:36:13;;;;;;;3.10;1.40;;;;;;;;;;5009986;28;20510;-61
2021/05/26 06:38:39;;;;;;;3.90;1.33;;;;;;;;;;5008274;28;20031;-61
2021/05/26 06:41:05;;;;;;;2.00;1.08;;;;;;;;;;5010175;28;20034;-61
2021/05/26 06:43:31;;;;;;;2.40;1.20;;;;;;;;;;5009921;28;20555;-61
2021/05/26 06:45:56;;;;;;;2.45;1.00;;;;;;;;;;4995048;28;20026;-60
2021/05/26 06:48:22;;;;;;;2.92;1.10;;;;;;;;;;4990047;28;20999;-61
2021/05/26 06:50:47;;;;;;;2.35;1.00;;;;;;;;;;4991718;28;20048;-61
2021/05/26 06:53:13;;;;;;;2.50;1.10;;;;;;;;;;5006256;28;20046;-61
2021/05/26 06:55:38;;;;;;;1.42;0.90;;;;;;;;;;4991964;28;20584;-60
2021/05/26 06:58:04;;;;;;;1.55;0.70;;;;;;;;;;5009328;28;20026;-60
2021/05/26 07:00:30;;;;;;;2.33;0.70;;;;;;;;;;5009887;28;20564;-60
2021/05/26 07:02:56;;;;;;;1.08;0.60;;;;;;;;;;4991701;28;20030;-61
2021/05/26 07:05:21;;;;;;;0.68;0.57;;;;;;;;;;5010131;28;20038;-60
2021/05/26 07:07:47;;;;;;;1.95;0.80;;;;;;;;;;5007175;28;20441;-60
2021/05/26 07:10:13;;;;;;;1.30;0.70;;;;;;;;;;5008029;28;20042;-61
2021/05/26 07:12:38;;;;;;;1.25;0.70;;;;;;;;;;5008785;28;20062;-61
2021/05/26 07:15:04;;;;;;;2.08;0.88;;;;;;;;;;5009512;28;20402;-61
2021/05/26 07:17:30;;;;;;;1.42;0.60;;;;;;;;;;5007932;28;20045;-61
2021/05/26 07:19:55;;;;;;;2.78;0.70;;;;;;;;;;5007634;28;20089;-61
2021/05/26 07:22:21;;;;;;;1.95;0.80;;;;;;;;;;5006906;28;20038;-60
2021/05/26 07:24:46;;;;;;;1.23;0.60;;;;;;;;;;5004397;28;20031;-61
2021/05/26 07:27:12;;;;;;;0.68;0.40;;;;;;;;;;5007680;28;20458;-61
2021/05/26 07:29:37;;;;;;;3.22;0.80;;;;;;;;;;4989986;28;20035;-61
2021/05/26 07:32:03;;;;;;;2.60;0.93;;;;;;;;;;5007793;28;20039;-61
2021/05/26 07:34:28;;;;;;;2.15;0.85;;;;;;;;;;5004327;28;20047;-61
2021/05/26 07:36:54;;;;;;;1.58;0.80;;;;;;;;;;5004384;28;20081;-61
2021/05/26 07:39:19;;;;;;;1.73;0.60;;;;;;;;;;5005661;28;20043;-61
2021/05/26 07:41:45;;;;;;;2.03;0.80;;;;;;;;;;5006980;28;20121;-61
2021/05/26 07:44:11;;;;;;;0.70;0.60;;;;;;;;;;5009358;28;20173;-61
2021/05/26 07:46:36;;;;;;;1.55;0.70;;;;;;;;;;5007602;28;20427;-61
2021/05/26 07:49:02;;;;;;;1.10;0.70;;;;;;;;;;5010798;28;20093;-61
2021/05/26 07:51:30;;;;;;;1.08;0.50;;;;;;;;;;5006787;28;20125;-61
2021/05/26 07:53:56;;;;;;;1.15;0.60;;;;;;;;;;5008863;28;20046;-61
2021/05/26 07:56:22;;;;;;;3.75;1.15;;;;;;;;;;4991821;28;20073;-61
2021/05/26 07:58:47;;;;;;;0.68;0.40;;;;;;;;;;4989732;28;20026;-61
2021/05/26 08:01:13;;;;;;;0.93;0.50;;;;;;;;;;4990274;28;20038;-61
2021/05/26 08:03:38;;;;;;;1.17;0.50;;;;;;;;;;5007277;28;20889;-61
2021/05/26 08:06:04;;;;;;;1.52;0.70;;;;;;;;;;5008253;28;20044;-61
2021/05/26 08:08:30;;;;;;;1.63;0.80;;;;;;;;;;5009844;28;20042;-61
2021/05/26 08:10:56;;;;;;;1.88;0.98;;;;;;;;;;5006969;28;20104;-61
2021/05/26 08:13:21;;;;;;;2.25;0.80;;;;;;;;;;5006721;28;20057;-61
2021/05/26 08:15:47;;;;;;;2.28;0.90;;;;;;;;;;5008132;28;20046;-61
2021/05/26 08:18:12;;;;;;;1.67;0.80;;;;;;;;;;4990294;28;20101;-61
2021/05/26 08:20:40;;;;;;;2.33;1.00;;;;;;;;;;4992299;28;20140;-61
2021/05/26 08:23:05;;;;;;;2.35;1.05;;;;;;;;;;4977824;28;20034;-61
2021/05/26 08:25:30;;;;;;;1.15;0.60;;;;;;;;;;5007680;28;20042;-61
2021/05/26 08:27:56;;;;;;;1.58;0.70;;;;;;;;;;5009255;28;20021;-61
2021/05/26 08:30:21;;;;;;;0.63;0.50;;;;;;;;;;5007099;28;20046;-61
2021/05/26 08:32:48;;;;;;;2.30;1.08;;;;;;;;;;5008214;28;20049;-61
2021/05/26 08:35:13;;;;;;;1.70;0.70;;;;;;;;;;5010141;28;20038;-61
2021/05/26 08:37:39;;;;;;;1.50;0.70;;;;;;;;;;5005095;28;20049;-61
2021/05/26 08:40:05;;;;;;;2.22;0.80;;;;;;;;;;4990615;28;20042;-61
2021/05/26 08:42:30;;;;;;;1.73;0.90;;;;;;;;;;4989927;28;20190;-61
2021/05/26 08:44:56;;;;;;;1.48;0.60;;;;;;;;;;5003470;28;27132;-61
2021/05/26 08:47:21;;;;;;;0.52;0.50;;;;;;;;;;5006399;28;20046;-61
2021/05/26 08:49:48;;;;;;;1.10;0.63;;;;;;;;;;5006982;28;25592;-61
2021/05/26 08:52:16;;;;;;;0.85;0.50;;;;;;;;;;5009110;28;20042;-61
2021/05/26 08:54:44;;;;;;;0.88;0.55;;;;;;;;;;5003871;28;20100;-61
2021/05/26 08:57:10;;;;;;;0.47;0.47;;;;;;;;;;4990270;28;20022;-61
2021/05/26 08:59:35;;;;;;;0.85;0.40;;;;;;;;;;5005722;28;20037;-61
2021/05/26 09:02:01;;;;;;;0.90;0.60;;;;;;;;;;5005828;28;20057;-61
2021/05/26 09:04:31;;;;;;;0.43;0.30;;;;;;;;;;5008100;28;20029;-61
2021/05/26 09:07:19;;;;;;;1.35;0.50;;;;;;;;;;4990341;28;20594;-61
2021/05/26 09:10:06;;;;;;;1.23;0.65;;;;;;;;;;5003430;28;20133;-61
2021/05/26 09:12:42;;;;;;;0.85;0.47;;;;;;;;;;5003678;28;20065;-61
2021/05/26 09:15:16;;;;;;;0.98;0.60;;;;;;;;;;5005211;28;20172;-61
2021/05/26 09:17:43;;;;;;;0.82;0.52;;;;;;;;;;5004344;28;20047;-61
2021/05/26 09:20:12;;;;;;;1.88;0.80;;;;;;;;;;5005624;28;20912;-61
2021/05/26 09:22:40;;;;;;;3.70;1.90;;;;;;;;;;5004777;28;20064;-61
2021/05/26 09:25:07;;;;;;;0.50;0.50;;;;;;;;;;5004968;28;20046;-61
2021/05/26 09:27:33;;;;;;;1.27;0.50;;;;;;;;;;5006821;28;20042;-61
2021/05/26 09:29:58;;;;;;;0.30;0.30;;;;;;;;;;4989528;28;20054;-61
2021/05/26 09:32:26;;;;;;;0.40;0.40;;;;;;;;;;5005726;28;21515;-61
2021/05/26 09:34:55;;;;;;;1.00;0.40;;;;;;;;;;5003981;28;20058;-61
2021/05/26 09:37:26;;;;;;;0.85;0.40;;;;;;;;;;5003688;28;20101;-61
2021/05/26 09:39:52;;;;;;;1.10;0.40;;;;;;;;;;5008979;28;20050;-61
2021/05/26 09:42:21;;;;;;;0.40;0.30;;;;;;;;;;5003739;28;20038;-61
2021/05/26 09:45:13;;;;;;;0.65;0.30;;;;;;;;;;5004427;28;20471;-59
2021/05/26 09:47:42;;;;;;;0.30;0.30;;;;;;;;;;5003748;28;20597;-59
2021/05/26 09:50:30;;;;;;;0.47;0.40;;;;;;;;;;5005666;28;20049;-59
2021/05/26 09:53:00;;;;;;;0.65;0.30;;;;;;;;;;4991578;28;20039;-59
2021/05/26 09:55:35;;;;;;;0.40;0.32;;;;;;;;;;5003981;28;20042;-59
2021/05/26 09:58:00;;;;;;;0.40;0.35;;;;;;;;;;5005750;28;20049;-61
2021/05/26 10:00:27;;;;;;;0.77;0.38;;;;;;;;;;5005756;28;20371;-60
2021/05/26 10:02:52;;;;;;;0.30;0.30;;;;;;;;;;4986363;28;20037;-60
2021/05/26 10:05:19;;;;;;;0.95;0.50;;;;;;;;;;5008611;28;20502;-60
2021/05/26 10:08:12;;;;;;;0.80;0.30;;;;;;;;;;4990536;28;20046;-60
2021/05/26 10:10:38;;;;;;;1.02;0.50;;;;;;;;;;4989370;28;20034;-60
2021/05/26 10:13:13;;;;;;;0.85;0.38;;;;;;;;;;4975257;28;20039;-60
2021/05/26 10:15:38;;;;;;;0.55;0.40;;;;;;;;;;4991064;28;20034;-61
2021/05/26 10:18:04;;;;;;;0.32;0.28;;;;;;;;;;4988977;28;20487;-60
2021/05/26 10:20:40;;;;;;;0.52;0.35;;;;;;;;;;4976012;28;20054;-60
2021/05/26 10:23:06;;;;;;;1.38;0.38;;;;;;;;;;4991971;28;20139;-61
2021/05/26 10:25:32;;;;;;;1.08;0.40;;;;;;;;;;5006442;28;20033;-61
2021/05/26 10:27:58;;;;;;;0.30;0.28;;;;;;;;;;4987728;28;20088;-61
2021/05/26 10:30:26;;;;;;;0.75;0.45;;;;;;;;;;4972905;28;20042;-60
2021/05/26 10:32:59;;;;;;;0.95;0.57;;;;;;;;;;5002308;28;20045;-61
2021/05/26 10:35:29;;;;;;;0.73;0.40;;;;;;;;;;4989986;28;20050;-61
2021/05/26 10:38:04;;;;;;;0.63;0.40;;;;;;;;;;4990635;28;20105;-61
2021/05/26 10:40:31;;;;;;;0.90;0.40;;;;;;;;;;4988730;28;20733;-60
2021/05/26 10:43:13;;;;;;;0.40;0.40;;;;;;;;;;5001550;28;20467;-61
2021/05/26 10:45:38;;;;;;;0.73;0.40;;;;;;;;;;5004264;28;20145;-61
2021/05/26 10:48:04;;;;;;;0.55;0.30;;;;;;;;;;5000782;28;20439;-61
2021/05/26 10:50:48;;;;;;;0.65;0.40;;;;;;;;;;4989796;28;20545;-61
2021/05/26 10:53:15;;;;;;;0.40;0.40;;;;;;;;;;5003158;28;20046;-61
2021/05/26 10:55:48;;;;;;;0.60;0.30;;;;;;;;;;5003369;28;20187;-60
2021/05/26 10:58:26;;;;;;;0.88;0.47;;;;;;;;;;5006501;28;20116;-60
2021/05/26 11:00:55;;;;;;;1.85;0.90;;;;;;;;;;5009434;28;20065;-60
2021/05/26 11:03:36;;;;;;;0.73;0.40;;;;;;;;;;5008651;28;20035;-60
2021/05/26 11:06:09;;;;;;;1.60;0.70;;;;;;;;;;5005067;28;20088;-60
2021/05/26 11:08:41;;;;;;;1.05;0.50;;;;;;;;;;5006450;28;20080;-60
2021/05/26 11:11:22;;;;;;;0.63;0.32;;;;;;;;;;5007160;28;20070;-60
2021/05/26 11:14:03;;;;;;;0.57;0.43;;;;;;;;;;5007046;28;20085;-60
2021/05/26 11:16:44;;;;;;;0.63;0.35;;;;;;;;;;5009460;28;20034;-59
2021/05/26 11:19:22;;;;;;;0.50;0.50;;;;;;;;;;5007900;28;20038;-60
2021/05/26 11:22:00;;;;;;;1.88;0.60;;;;;;;;;;4993431;28;20121;-60
2021/05/26 11:24:27;;;;;;;0.55;0.40;;;;;;;;;;5008747;28;20034;-60
2021/05/26 11:26:52;;;;;;;0.85;0.50;;;;;;;;;;4991439;28;20046;-60
2021/05/26 11:29:27;;;;;;;0.70;0.50;;;;;;;;;;5005441;28;20050;-60
2021/05/26 11:32:06;;;;;;;1.38;0.60;;;;;;;;;;5007541;28;20031;-60
2021/05/26 11:34:31;;;;;;;0.60;0.50;;;;;;;;;;4990759;28;20057;-60
2021/05/26 11:36:57;;;;;;;0.68;0.50;;;;;;;;;;5006599;28;20041;-60
2021/05/26 11:39:28;;;;;;;0.73;0.70;;;;;;;;;;5008465;28;20084;-60
2021/05/26 11:42:09;;;;;;;0.68;0.68;;;;;;;;;;5005393;28;20034;-59
2021/05/26 11:44:38;;;;;;;1.20;0.80;;;;;;;;;;5009213;28;20045;-60
2021/05/26 11:47:04;;;;;;;1.38;0.77;;;;;;;;;;4990627;28;20035;-60
2021/05/26 11:49:34;;;;;;;1.10;0.90;;;;;;;;;;4981225;28;20109;-60
2021/05/26 11:52:04;;;;;;;1.48;1.15;;;;;;;;;;4992575;28;20147;-60
2021/05/26 11:54:30;;;;;;;1.42;1.17;;;;;;;;;;4992847;28;20047;-60
2021/05/26 11:57:07;;;;;;;2.65;1.75;;;;;;;;;;5006580;28;20043;-60
2021/05/26 11:59:33;;;;;;;4.03;2.35;;;;;;;;;;5007899;28;20101;-60
2021/05/26 12:01:58;;;;;;;2.33;1.63;;;;;;;;;;5007477;28;20053;-60
2021/05/26 12:04:24;;;;;;;1.40;1.10;;;;;;;;;;5006496;28;20876;-60
2021/05/26 12:06:50;;;;;;;1.45;1.23;;;;;;;;;;5006980;28;20058;-60
2021/05/26 12:09:26;;;;;;;3.15;2.10;;;;;;;;;;4977657;28;20047;-60
2021/05/26 12:11:51;;;;;;;2.72;1.92;;;;;;;;;;5006129;28;20573;-60
2021/05/26 12:14:43;;;;;;;2.60;1.67;;;;;;;;;;4987942;28;20109;-60
2021/05/26 12:17:10;;;;;;;3.03;2.17;;;;;;;;;;4989041;28;20573;-60
2021/05/26 12:19:36;;;;;;;2.65;2.05;;;;;;;;;;5008853;28;20044;-60
2021/05/26 12:22:17;;;;;;;2.60;1.70;;;;;;;;;;5005858;28;20344;-60
2021/05/26 12:24:55;;;;;;;3.28;2.00;;;;;;;;;;4989119;28;20035;-60
2021/05/26 12:27:44;;;;;;;1.98;1.50;;;;;;;;;;5007000;28;20051;-60
2021/05/26 12:30:13;;;;;;;2.78;1.60;;;;;;;;;;5005534;28;20046;-60
2021/05/26 12:32:39;;;;;;;3.00;1.83;;;;;;;;;;4975838;28;20502;-60
2021/05/26 12:35:20;;;;;;;2.63;1.63;;;;;;;;;;5005654;28;20081;-60
2021/05/26 12:37:49;;;;;;;1.63;1.52;;;;;;;;;;4989470;28;20038;-60
2021/05/26 12:40:31;;;;;;;1.60;1.13;;;;;;;;;;4977490;28;20101;-59
2021/05/26 12:42:58;;;;;;;2.65;1.83;;;;;;;;;;5006988;28;20125;-59
2021/05/26 12:45:29;;;;;;;2.80;1.92;;;;;;;;;;5006033;28;20030;-60
2021/05/26 12:47:55;;;;;;;1.92;1.48;;;;;;;;;;5006128;28;20093;-60
2021/05/26 12:50:26;;;;;;;4.30;2.50;;;;;;;;;;5003014;28;20038;-60
2021/05/26 12:52:53;;;;;;;3.25;1.38;;;;;;;;;;5005690;28;20046;-60
2021/05/26 12:55:20;;;;;;;1.73;1.20;;;;;;;;;;4990135;28;20042;-60
2021/05/26 12:57:46;;;;;;;4.22;2.38;;;;;;;;;;4990291;28;20483;-60
2021/05/26 13:00:24;;;;;;;1.48;1.00;;;;;;;;;;5004692;28;20581;-60
2021/05/26 13:02:50;;;;;;;1.30;1.08;;;;;;;;;;5007497;28;20038;-60
2021/05/26 13:05:37;;;;;;;2.42;1.00;;;;;;;;;;4987330;28;20046;-60
2021/05/26 13:08:23;;;;;;;2.45;1.00;;;;;;;;;;5000214;28;20047;-60
2021/05/26 13:10:53;;;;;;;1.05;0.90;;;;;;;;;;5008065;28;20038;-59
2021/05/26 13:13:29;;;;;;;1.13;0.80;;;;;;;;;;5004838;28;21025;-60
2021/05/26 13:15:56;;;;;;;1.25;0.88;;;;;;;;;;4985408;28;20035;-60
2021/05/26 13:18:23;;;;;;;0.90;0.90;;;;;;;;;;5004278;28;20092;-60
2021/05/26 13:20:48;;;;;;;1.58;1.00;;;;;;;;;;4993974;28;20117;-60
2021/05/26 13:23:15;;;;;;;1.17;0.98;;;;;;;;;;4973767;28;20034;-60
2021/05/26 13:25:41;;;;;;;1.70;0.90;;;;;;;;;;4975771;28;20068;-60
2021/05/26 13:28:09;;;;;;;1.08;0.90;;;;;;;;;;5005346;28;20030;-61
2021/05/26 13:30:35;;;;;;;1.13;1.02;;;;;;;;;;5005096;28;20049;-60
2021/05/26 13:33:01;;;;;;;1.50;1.20;;;;;;;;;;5005726;28;20048;-60
2021/05/26 13:35:27;;;;;;;0.75;0.70;;;;;;;;;;5004389;28;20058;-60
2021/05/26 13:37:53;;;;;;;0.60;0.60;;;;;;;;;;5008822;28;20609;-60
2021/05/26 13:40:18;;;;;;;0.98;0.80;;;;;;;;;;5006014;28;20137;-60
2021/05/26 13:42:44;;;;;;;1.30;0.90;;;;;;;;;;4989763;28;20042;-60
2021/05/26 13:45:10;;;;;;;1.35;1.00;;;;;;;;;;5006320;28;20034;-60
2021/05/26 13:47:36;;;;;;;2.50;1.63;;;;;;;;;;4992398;28;20036;-60
2021/05/26 13:50:03;;;;;;;1.60;1.20;;;;;;;;;;4985869;28;24000;-61
2021/05/26 13:52:28;;;;;;;2.40;1.58;;;;;;;;;;5004684;28;20026;-61
2021/05/26 13:54:54;;;;;;;0.90;0.70;;;;;;;;;;5005149;28;20074;-61
2021/05/26 13:57:20;;;;;;;2.35;1.42;;;;;;;;;;5005192;28;20416;-61
2021/05/26 13:59:45;;;;;;;2.72;1.25;;;;;;;;;;4989036;28;20034;-61
2021/05/26 14:02:11;;;;;;;4.13;2.08;;;;;;;;;;4989340;28;20097;-62
2021/05/26 14:04:36;;;;;;;0.63;0.60;;;;;;;;;;5006262;28;20034;-61
2021/05/26 14:07:02;;;;;;;0.82;0.50;;;;;;;;;;5003202;28;20045;-61
2021/05/26 14:09:27;;;;;;;0.90;0.35;;;;;;;;;;5002690;28;20042;-60
2021/05/26 14:11:53;;;;;;;0.52;0.38;;;;;;;;;;5002453;28;20034;-60
2021/05/26 14:14:19;;;;;;;0.40;0.40;;;;;;;;;;4978532;28;20475;-61
2021/05/26 14:16:44;;;;;;;0.85;0.40;;;;;;;;;;4987675;28;20117;-62
2021/05/26 14:19:10;;;;;;;1.27;0.40;;;;;;;;;;5003373;28;20034;-60
2021/05/26 14:21:38;;;;;;;0.38;0.38;;;;;;;;;;4986154;28;20109;-60
2021/05/26 14:24:04;;;;;;;0.40;0.30;;;;;;;;;;5006042;28;21139;-61
2021/05/26 14:26:29;;;;;;;0.85;0.40;;;;;;;;;;5005216;28;20026;-60
2021/05/26 14:28:55;;;;;;;0.65;0.60;;;;;;;;;;5003077;28;20042;-61
2021/05/26 14:31:20;;;;;;;0.40;0.40;;;;;;;;;;5007319;28;20040;-61
2021/05/26 14:33:46;;;;;;;0.50;0.30;;;;;;;;;;5007539;28;20047;-61
2021/05/26 14:36:15;;;;;;;0.77;0.45;;;;;;;;;;5006695;28;20038;-61
2021/05/26 14:38:47;;;;;;;0.30;0.30;;;;;;;;;;5006309;28;20033;-62
2021/05/26 14:41:12;;;;;;;0.30;0.30;;;;;;;;;;5007635;28;20038;-61
2021/05/26 14:43:38;;;;;;;0.28;0.28;;;;;;;;;;4990662;28;20138;-62
2021/05/26 14:46:04;;;;;;;0.65;0.50;;;;;;;;;;5007671;28;20034;-61
2021/05/26 14:48:30;;;;;;;0.63;0.40;;;;;;;;;;4990205;28;20575;-62
2021/05/26 14:50:57;;;;;;;1.13;0.60;;;;;;;;;;4990374;28;20052;-62